BARN04 YWLM-YWLM
Flight info
| Callsign | BARN04 |
|---|---|
| Flight time | 2h 12m |
| Altitude | 14000 |
| Route | WLM DCT WLM300075/N0440F220 DCT WLM308123/N0440F280 WWX WLM308123/N0440F190 WLM300075/N0370F130 DCT WLM |
| Aircraft | F35/M-SDFGHIM1RWXY/H |
Departure
| Time | 2026-04-30 10:28 |
|---|---|
| Airport | Newcastle Airport (YWLM) |
Arrival
| Time | 2026-04-30 12:40 |
|---|---|
| Airport | Newcastle Airport (YWLM) |
| Time | Latitude | Longitude | Altitude | Speed | Heading |
|---|---|---|---|---|---|
| 2026-04-30 10:20 | -32.78970 | 151.83964 | 31 ft | 0 kts | 55° |
| 2026-04-30 10:21 | -32.78969 | 151.83966 | 31 ft | 0 kts | 55° |
| 2026-04-30 10:23 | -32.78969 | 151.83989 | 31 ft | 0 kts | 144° |
| 2026-04-30 10:23 | -32.79008 | 151.83984 | 31 ft | 12 kts | 234° |
| 2026-04-30 10:23 | -32.79079 | 151.83863 | 31 ft | 20 kts | 235° |
| 2026-04-30 10:24 | -32.79168 | 151.83736 | 31 ft | 20 kts | 221° |
| 2026-04-30 10:24 | -32.79269 | 151.83633 | 31 ft | 19 kts | 220° |
| 2026-04-30 10:24 | -32.79371 | 151.83530 | 29 ft | 18 kts | 220° |
| 2026-04-30 10:24 | -32.79446 | 151.83573 | 28 ft | 19 kts | 129° |
| 2026-04-30 10:25 | -32.79550 | 151.83720 | 28 ft | 25 kts | 130° |
| 2026-04-30 10:25 | -32.79656 | 151.83865 | 31 ft | 22 kts | 131° |
| 2026-04-30 10:25 | -32.79755 | 151.84003 | 32 ft | 21 kts | 130° |
| 2026-04-30 10:25 | -32.79849 | 151.84135 | 33 ft | 22 kts | 130° |
| 2026-04-30 10:26 | -32.79952 | 151.84280 | 31 ft | 23 kts | 130° |
| 2026-04-30 10:26 | -32.80055 | 151.84425 | 30 ft | 23 kts | 129° |
| 2026-04-30 10:26 | -32.80160 | 151.84571 | 29 ft | 23 kts | 130° |
| 2026-04-30 10:26 | -32.80259 | 151.84711 | 29 ft | 22 kts | 129° |
| 2026-04-30 10:27 | -32.80362 | 151.84830 | 32 ft | 19 kts | 162° |
| 2026-04-30 10:27 | -32.80468 | 151.84761 | 31 ft | 17 kts | 221° |
| 2026-04-30 10:27 | -32.80292 | 151.84465 | 29 ft | 134 kts | 310° |
| 2026-04-30 10:27 | -32.79348 | 151.83126 | 313 ft | 256 kts | 310° |
| 2026-04-30 10:28 | -32.77922 | 151.81121 | 1473 ft | 368 kts | 311° |
| 2026-04-30 10:28 | -32.76293 | 151.78837 | 2151 ft | 360 kts | 312° |
| 2026-04-30 10:28 | -32.74640 | 151.76450 | 3222 ft | 370 kts | 313° |
| 2026-04-30 10:28 | -32.72943 | 151.74185 | 4799 ft | 375 kts | 316° |
| 2026-04-30 10:29 | -32.71057 | 151.72012 | 6608 ft | 383 kts | 317° |
| 2026-04-30 10:29 | -32.69081 | 151.69782 | 8132 ft | 392 kts | 317° |
| 2026-04-30 10:29 | -32.67158 | 151.67404 | 9771 ft | 404 kts | 314° |
| 2026-04-30 10:29 | -32.65228 | 151.64925 | 11492 ft | 412 kts | 314° |
| 2026-04-30 10:30 | -32.63241 | 151.62376 | 13018 ft | 430 kts | 312° |
| 2026-04-30 10:30 | -32.61289 | 151.59746 | 13642 ft | 432 kts | 313° |
| 2026-04-30 10:30 | -32.59238 | 151.57134 | 13872 ft | 431 kts | 315° |
| 2026-04-30 10:30 | -32.57090 | 151.54632 | 13958 ft | 431 kts | 315° |
| 2026-04-30 10:31 | -32.54986 | 151.52093 | 13992 ft | 432 kts | 315° |
| 2026-04-30 10:31 | -32.52891 | 151.49529 | 14021 ft | 432 kts | 315° |
| 2026-04-30 10:31 | -32.50813 | 151.46994 | 14028 ft | 428 kts | 315° |
| 2026-04-30 10:31 | -32.48415 | 151.44045 | 14092 ft | 512 kts | 314° |
| 2026-04-30 10:32 | -32.45959 | 151.41020 | 14158 ft | 514 kts | 315° |
| 2026-04-30 10:32 | -32.43463 | 151.37978 | 14143 ft | 516 kts | 315° |
| 2026-04-30 10:32 | -32.40735 | 151.34671 | 14076 ft | 591 kts | 315° |
| 2026-04-30 10:32 | -32.37891 | 151.31175 | 14018 ft | 591 kts | 315° |
| 2026-04-30 10:33 | -32.35044 | 151.27652 | 13996 ft | 591 kts | 314° |
| 2026-04-30 10:33 | -32.32294 | 151.24093 | 13990 ft | 592 kts | 313° |
| 2026-04-30 10:33 | -32.29516 | 151.20492 | 13985 ft | 592 kts | 313° |
| 2026-04-30 10:33 | -32.26746 | 151.16889 | 13984 ft | 592 kts | 314° |
| 2026-04-30 10:34 | -32.23933 | 151.13335 | 14004 ft | 592 kts | 314° |
| 2026-04-30 10:34 | -32.21122 | 151.09759 | 14039 ft | 592 kts | 312° |
| 2026-04-30 10:34 | -32.18378 | 151.06149 | 14083 ft | 591 kts | 312° |
| 2026-04-30 10:34 | -32.15652 | 151.02503 | 14126 ft | 591 kts | 313° |
| 2026-04-30 10:35 | -32.12852 | 150.98964 | 14124 ft | 592 kts | 313° |
| 2026-04-30 10:35 | -32.10120 | 150.95395 | 13969 ft | 591 kts | 312° |
| 2026-04-30 10:35 | -32.07371 | 150.91767 | 13934 ft | 592 kts | 312° |
| 2026-04-30 10:35 | -32.04615 | 150.88148 | 13865 ft | 591 kts | 313° |
| 2026-04-30 10:36 | -32.01821 | 150.84555 | 13855 ft | 592 kts | 313° |
| 2026-04-30 10:36 | -31.99096 | 150.80989 | 13797 ft | 592 kts | 311° |
| 2026-04-30 10:36 | -31.96385 | 150.77332 | 13782 ft | 592 kts | 312° |
| 2026-04-30 10:36 | -31.93658 | 150.73697 | 13977 ft | 590 kts | 315° |
| 2026-04-30 10:37 | -31.90389 | 150.70991 | 16325 ft | 574 kts | 333° |
| 2026-04-30 10:37 | -31.86761 | 150.69093 | 19230 ft | 569 kts | 338° |
| 2026-04-30 10:37 | -31.83121 | 150.67279 | 22111 ft | 564 kts | 338° |
| 2026-04-30 10:37 | -31.79386 | 150.65432 | 22303 ft | 585 kts | 337° |
| 2026-04-30 10:38 | -31.75719 | 150.63407 | 21907 ft | 579 kts | 332° |
| 2026-04-30 10:38 | -31.72158 | 150.61288 | 21913 ft | 581 kts | 334° |
| 2026-04-30 10:38 | -31.68508 | 150.59223 | 21887 ft | 579 kts | 334° |
| 2026-04-30 10:38 | -31.64839 | 150.57219 | 21892 ft | 578 kts | 334° |
| 2026-04-30 10:39 | -31.61184 | 150.55211 | 22057 ft | 580 kts | 336° |
| 2026-04-30 10:39 | -31.57520 | 150.53363 | 22212 ft | 579 kts | 336° |
| 2026-04-30 10:39 | -31.53840 | 150.51451 | 22305 ft | 579 kts | 335° |
| 2026-04-30 10:39 | -31.50226 | 150.49350 | 22442 ft | 579 kts | 334° |
| 2026-04-30 10:40 | -31.46611 | 150.47246 | 22588 ft | 579 kts | 333° |
| 2026-04-30 10:40 | -31.43023 | 150.45063 | 22578 ft | 581 kts | 332° |
| 2026-04-30 10:40 | -31.39526 | 150.42819 | 22238 ft | 579 kts | 332° |
| 2026-04-30 10:40 | -31.35914 | 150.40708 | 22215 ft | 579 kts | 334° |
| 2026-04-30 10:41 | -31.32299 | 150.38598 | 22236 ft | 580 kts | 333° |
| 2026-04-30 10:41 | -31.28686 | 150.36478 | 22238 ft | 580 kts | 333° |
| 2026-04-30 10:41 | -31.25094 | 150.34299 | 22217 ft | 581 kts | 333° |
| 2026-04-30 10:41 | -31.21495 | 150.32130 | 22181 ft | 581 kts | 334° |
| 2026-04-30 10:42 | -31.17916 | 150.30052 | 22138 ft | 582 kts | 333° |
| 2026-04-30 10:42 | -31.14263 | 150.27987 | 22091 ft | 582 kts | 334° |
| 2026-04-30 10:42 | -31.10736 | 150.25772 | 23143 ft | 574 kts | 331° |
| 2026-04-30 10:42 | -31.07451 | 150.23127 | 24512 ft | 571 kts | 319° |
| 2026-04-30 10:43 | -31.04378 | 150.20189 | 25813 ft | 566 kts | 321° |
| 2026-04-30 10:43 | -31.01669 | 150.16990 | 27165 ft | 558 kts | 307° |
| 2026-04-30 10:43 | -30.99482 | 150.13241 | 27942 ft | 559 kts | 298° |
| 2026-04-30 10:43 | -30.97563 | 150.09308 | 27933 ft | 556 kts | 299° |
| 2026-04-30 10:44 | -30.95616 | 150.05402 | 27729 ft | 558 kts | 300° |
| 2026-04-30 10:44 | -30.93550 | 150.01578 | 27527 ft | 558 kts | 302° |
| 2026-04-30 10:44 | -30.91438 | 149.97801 | 27640 ft | 556 kts | 303° |
| 2026-04-30 10:44 | -30.89205 | 149.94109 | 27807 ft | 556 kts | 303° |
| 2026-04-30 10:45 | -30.87150 | 149.90357 | 27988 ft | 555 kts | 301° |
| 2026-04-30 10:45 | -30.85154 | 149.86521 | 28149 ft | 557 kts | 299° |
| 2026-04-30 10:45 | -30.83206 | 149.82529 | 28241 ft | 568 kts | 297° |
| 2026-04-30 10:45 | -30.81436 | 149.78421 | 28310 ft | 568 kts | 298° |
| 2026-04-30 10:46 | -30.79507 | 149.74456 | 28661 ft | 565 kts | 299° |
| 2026-04-30 10:46 | -30.77490 | 149.70475 | 28299 ft | 573 kts | 300° |
| 2026-04-30 10:46 | -30.75441 | 149.66512 | 28038 ft | 571 kts | 300° |
| 2026-04-30 10:46 | -30.73400 | 149.62541 | 27941 ft | 573 kts | 299° |
| 2026-04-30 10:47 | -30.71421 | 149.58500 | 27910 ft | 572 kts | 298° |
| 2026-04-30 10:47 | -30.69449 | 149.54468 | 27897 ft | 573 kts | 300° |
| 2026-04-30 10:47 | -30.67504 | 149.50496 | 27895 ft | 572 kts | 295° |
| 2026-04-30 10:47 | -30.65656 | 149.46401 | 27901 ft | 572 kts | 299° |
| 2026-04-30 10:48 | -30.63655 | 149.42375 | 27898 ft | 573 kts | 299° |
| 2026-04-30 10:48 | -30.61677 | 149.38353 | 27892 ft | 572 kts | 298° |
| 2026-04-30 10:48 | -30.59747 | 149.34316 | 27889 ft | 572 kts | 297° |
| 2026-04-30 10:48 | -30.57925 | 149.30227 | 27883 ft | 572 kts | 294° |
| 2026-04-30 10:49 | -30.56319 | 149.26060 | 27885 ft | 572 kts | 297° |
| 2026-04-30 10:49 | -30.54026 | 149.22294 | 27920 ft | 574 kts | 309° |
| 2026-04-30 10:49 | -30.51816 | 149.18455 | 27922 ft | 571 kts | 293° |
| 2026-04-30 10:49 | -30.50649 | 149.14075 | 27953 ft | 568 kts | 279° |
| 2026-04-30 10:50 | -30.49798 | 149.09595 | 27954 ft | 569 kts | 291° |
| 2026-04-30 10:50 | -30.47852 | 149.05580 | 27937 ft | 574 kts | 302° |
| 2026-04-30 10:50 | -30.45651 | 149.01718 | 27892 ft | 572 kts | 301° |
| 2026-04-30 10:50 | -30.43534 | 148.97876 | 27888 ft | 572 kts | 302° |
| 2026-04-30 10:51 | -30.41344 | 148.94022 | 27874 ft | 573 kts | 302° |
| 2026-04-30 10:51 | -30.39218 | 148.90118 | 27877 ft | 570 kts | 297° |
| 2026-04-30 10:51 | -30.37416 | 148.86030 | 27878 ft | 571 kts | 294° |
| 2026-04-30 10:51 | -30.35634 | 148.81921 | 27876 ft | 571 kts | 298° |
| 2026-04-30 10:52 | -30.33667 | 148.77928 | 27875 ft | 571 kts | 297° |
| 2026-04-30 10:52 | -30.31811 | 148.73848 | 27876 ft | 571 kts | 297° |
| 2026-04-30 10:52 | -30.29918 | 148.69867 | 27872 ft | 571 kts | 297° |
| 2026-04-30 10:52 | -30.28022 | 148.65835 | 27877 ft | 570 kts | 297° |
| 2026-04-30 10:53 | -30.26111 | 148.61747 | 27868 ft | 571 kts | 297° |
| 2026-04-30 10:53 | -30.24224 | 148.57768 | 27873 ft | 571 kts | 297° |
| 2026-04-30 10:53 | -30.22329 | 148.53732 | 27867 ft | 571 kts | 297° |
| 2026-04-30 10:53 | -30.20427 | 148.49706 | 27870 ft | 570 kts | 297° |
| 2026-04-30 10:54 | -30.18526 | 148.45685 | 27875 ft | 570 kts | 297° |
| 2026-04-30 10:54 | -30.16622 | 148.41654 | 27866 ft | 571 kts | 297° |
| 2026-04-30 10:54 | -30.14711 | 148.37620 | 27872 ft | 570 kts | 297° |
| 2026-04-30 10:54 | -30.12801 | 148.33590 | 27870 ft | 570 kts | 297° |
| 2026-04-30 10:55 | -30.10897 | 148.29575 | 27869 ft | 570 kts | 297° |
| 2026-04-30 10:55 | -30.08984 | 148.25548 | 27873 ft | 570 kts | 297° |
| 2026-04-30 10:55 | -30.07097 | 148.21577 | 27867 ft | 570 kts | 297° |
| 2026-04-30 10:55 | -30.05171 | 148.17579 | 27865 ft | 570 kts | 301° |
| 2026-04-30 10:56 | -30.02638 | 148.14051 | 27914 ft | 574 kts | 317° |
| 2026-04-30 10:56 | -29.99401 | 148.11323 | 27921 ft | 578 kts | 326° |
| 2026-04-30 10:56 | -29.95947 | 148.08930 | 27893 ft | 577 kts | 329° |
| 2026-04-30 10:56 | -29.92485 | 148.06685 | 27875 ft | 578 kts | 329° |
| 2026-04-30 10:57 | -29.88930 | 148.04446 | 27873 ft | 579 kts | 330° |
| 2026-04-30 10:57 | -29.85383 | 148.02242 | 27864 ft | 579 kts | 330° |
| 2026-04-30 10:57 | -29.81868 | 148.00073 | 27869 ft | 578 kts | 330° |
| 2026-04-30 10:57 | -29.78321 | 147.97893 | 27864 ft | 579 kts | 330° |
| 2026-04-30 10:58 | -29.74757 | 147.95708 | 27869 ft | 579 kts | 330° |
| 2026-04-30 10:58 | -29.71191 | 147.93525 | 27866 ft | 579 kts | 330° |
| 2026-04-30 10:58 | -29.67626 | 147.91345 | 27865 ft | 579 kts | 330° |
| 2026-04-30 10:58 | -29.64068 | 147.89172 | 27870 ft | 579 kts | 330° |
| 2026-04-30 10:59 | -29.60541 | 147.87020 | 27864 ft | 579 kts | 330° |
| 2026-04-30 10:59 | -29.56966 | 147.84841 | 27864 ft | 579 kts | 330° |
| 2026-04-30 10:59 | -29.53398 | 147.82668 | 27867 ft | 579 kts | 330° |
| 2026-04-30 10:59 | -29.49831 | 147.80498 | 27859 ft | 579 kts | 330° |
| 2026-04-30 11:00 | -29.46259 | 147.78328 | 27864 ft | 580 kts | 330° |
| 2026-04-30 11:00 | -29.42720 | 147.76179 | 27860 ft | 580 kts | 330° |
| 2026-04-30 11:00 | -29.39155 | 147.74016 | 27862 ft | 579 kts | 330° |
| 2026-04-30 11:00 | -29.35585 | 147.71850 | 27864 ft | 580 kts | 330° |
| 2026-04-30 11:01 | -29.32016 | 147.69683 | 27866 ft | 580 kts | 330° |
| 2026-04-30 11:01 | -29.28492 | 147.67541 | 27866 ft | 579 kts | 330° |
| 2026-04-30 11:01 | -29.24927 | 147.65373 | 27862 ft | 579 kts | 330° |
| 2026-04-30 11:01 | -29.21353 | 147.63198 | 27861 ft | 579 kts | 330° |
| 2026-04-30 11:02 | -29.17786 | 147.61025 | 27861 ft | 579 kts | 330° |
| 2026-04-30 11:02 | -29.14271 | 147.58883 | 27861 ft | 579 kts | 330° |
| 2026-04-30 11:02 | -29.10714 | 147.56714 | 27863 ft | 579 kts | 330° |
| 2026-04-30 11:02 | -29.07151 | 147.54541 | 27864 ft | 578 kts | 330° |
| 2026-04-30 11:03 | -29.03575 | 147.52372 | 27859 ft | 579 kts | 330° |
| 2026-04-30 11:03 | -29.00057 | 147.50248 | 27866 ft | 578 kts | 330° |
| 2026-04-30 11:03 | -28.96494 | 147.48100 | 27863 ft | 578 kts | 330° |
| 2026-04-30 11:04 | -28.89360 | 147.43803 | 27864 ft | 578 kts | 330° |
| 2026-04-30 11:04 | -28.85829 | 147.41677 | 27859 ft | 578 kts | 330° |
| 2026-04-30 11:04 | -28.82268 | 147.39532 | 27862 ft | 578 kts | 330° |
| 2026-04-30 11:04 | -28.78703 | 147.37385 | 27858 ft | 578 kts | 330° |
| 2026-04-30 11:05 | -28.76340 | 147.35961 | 27858 ft | 578 kts | 330° |
| 2026-04-30 11:05 | -28.72781 | 147.33817 | 27861 ft | 578 kts | 330° |
| 2026-04-30 11:05 | -28.69238 | 147.31681 | 27856 ft | 579 kts | 330° |
| 2026-04-30 11:05 | -28.65662 | 147.29525 | 27858 ft | 578 kts | 330° |
| 2026-04-30 11:06 | -28.60943 | 147.26679 | 27851 ft | 578 kts | 330° |
| 2026-04-30 11:06 | -28.58543 | 147.25232 | 27851 ft | 578 kts | 330° |
| 2026-04-30 11:06 | -28.54987 | 147.23088 | 27854 ft | 578 kts | 330° |
| 2026-04-30 11:06 | -28.51441 | 147.20923 | 27847 ft | 577 kts | 327° |
| 2026-04-30 11:07 | -28.48243 | 147.18301 | 27861 ft | 574 kts | 318° |
| 2026-04-30 11:07 | -28.45197 | 147.15354 | 27854 ft | 573 kts | 316° |
| 2026-04-30 11:07 | -28.42237 | 147.12335 | 27849 ft | 572 kts | 315° |
| 2026-04-30 11:07 | -28.39297 | 147.09271 | 27847 ft | 571 kts | 315° |
| 2026-04-30 11:08 | -28.36379 | 147.06198 | 27846 ft | 571 kts | 315° |
| 2026-04-30 11:08 | -28.32527 | 147.02115 | 27847 ft | 571 kts | 315° |
| 2026-04-30 11:08 | -28.30568 | 147.00035 | 27844 ft | 571 kts | 315° |
| 2026-04-30 11:08 | -28.27701 | 146.96983 | 27847 ft | 570 kts | 315° |
| 2026-04-30 11:09 | -28.24807 | 146.93897 | 27849 ft | 570 kts | 314° |
| 2026-04-30 11:09 | -28.21920 | 146.90815 | 27844 ft | 570 kts | 314° |
| 2026-04-30 11:09 | -28.19029 | 146.87727 | 27847 ft | 570 kts | 314° |
| 2026-04-30 11:09 | -28.16140 | 146.84638 | 27841 ft | 569 kts | 315° |
| 2026-04-30 11:10 | -28.13256 | 146.81549 | 27845 ft | 569 kts | 314° |
| 2026-04-30 11:10 | -28.10379 | 146.78465 | 27839 ft | 569 kts | 314° |
| 2026-04-30 11:10 | -28.07536 | 146.75413 | 27834 ft | 569 kts | 314° |
| 2026-04-30 11:10 | -28.04668 | 146.72334 | 27842 ft | 569 kts | 314° |
| 2026-04-30 11:11 | -28.01795 | 146.69248 | 27840 ft | 568 kts | 314° |
| 2026-04-30 11:11 | -27.98923 | 146.66161 | 27834 ft | 569 kts | 314° |
| 2026-04-30 11:11 | -27.96048 | 146.63067 | 27832 ft | 569 kts | 314° |
| 2026-04-30 11:11 | -27.93182 | 146.59981 | 27838 ft | 569 kts | 314° |
| 2026-04-30 11:12 | -27.90312 | 146.56889 | 27838 ft | 568 kts | 314° |
| 2026-04-30 11:12 | -27.87486 | 146.53841 | 27839 ft | 569 kts | 314° |
| 2026-04-30 11:12 | -27.84622 | 146.50749 | 27838 ft | 569 kts | 314° |
| 2026-04-30 11:12 | -27.81764 | 146.47661 | 27835 ft | 569 kts | 314° |
| 2026-04-30 11:13 | -27.78904 | 146.44568 | 27836 ft | 569 kts | 314° |
| 2026-04-30 11:13 | -27.76040 | 146.41468 | 27829 ft | 569 kts | 314° |
| 2026-04-30 11:13 | -27.73176 | 146.38366 | 27862 ft | 568 kts | 314° |
| 2026-04-30 11:13 | -27.70365 | 146.35320 | 28090 ft | 568 kts | 314° |
| 2026-04-30 11:14 | -27.67507 | 146.32227 | 28193 ft | 568 kts | 314° |
| 2026-04-30 11:14 | -27.61830 | 146.26122 | 28255 ft | 563 kts | 314° |
| 2026-04-30 11:15 | -27.56161 | 146.20073 | 28258 ft | 562 kts | 314° |
| 2026-04-30 11:15 | -27.50459 | 146.14010 | 28259 ft | 562 kts | 314° |
| 2026-04-30 11:16 | -27.44761 | 146.07964 | 28251 ft | 562 kts | 314° |
| 2026-04-30 11:16 | -27.39093 | 146.01962 | 28253 ft | 562 kts | 314° |
| 2026-04-30 11:17 | -27.33380 | 145.95922 | 28247 ft | 561 kts | 314° |
| 2026-04-30 11:17 | -27.27690 | 145.89905 | 28249 ft | 561 kts | 314° |
| 2026-04-30 11:18 | -27.22043 | 145.83934 | 28241 ft | 560 kts | 314° |
| 2026-04-30 11:18 | -27.13670 | 145.74772 | 28252 ft | 557 kts | 308° |
| 2026-04-30 11:19 | -27.08875 | 145.67990 | 28246 ft | 555 kts | 304° |
| 2026-04-30 11:19 | -27.04270 | 145.61046 | 28242 ft | 554 kts | 303° |
| 2026-04-30 11:20 | -27.00874 | 145.53502 | 28240 ft | 509 kts | 290° |
| 2026-04-30 11:20 | -26.99625 | 145.50055 | 28218 ft | 444 kts | 289° |
| 2026-04-30 11:20 | -26.98564 | 145.47044 | 28223 ft | 387 kts | 289° |
| 2026-04-30 11:21 | -26.97554 | 145.44470 | 28228 ft | 336 kts | 294° |
| 2026-04-30 11:21 | -26.96475 | 145.42277 | 28238 ft | 317 kts | 296° |
| 2026-04-30 11:21 | -26.95364 | 145.40103 | 28240 ft | 336 kts | 295° |
| 2026-04-30 11:21 | -26.94180 | 145.37582 | 28242 ft | 366 kts | 294° |
| 2026-04-30 11:22 | -26.91893 | 145.32494 | 28244 ft | 409 kts | 294° |
| 2026-04-30 11:22 | -26.90567 | 145.29437 | 28239 ft | 433 kts | 294° |
| 2026-04-30 11:22 | -26.89245 | 145.26377 | 28238 ft | 437 kts | 293° |
| 2026-04-30 11:23 | -26.86619 | 145.20272 | 28239 ft | 436 kts | 293° |
| 2026-04-30 11:24 | -26.82707 | 145.11143 | 28231 ft | 435 kts | 293° |
| 2026-04-30 11:24 | -26.79798 | 145.05204 | 28238 ft | 439 kts | 304° |
| 2026-04-30 11:25 | -26.73752 | 144.97823 | 28193 ft | 393 kts | 321° |
| 2026-04-30 11:25 | -26.70114 | 144.94173 | 28052 ft | 349 kts | 308° |
| 2026-04-30 11:26 | -26.66103 | 144.89546 | 28272 ft | 359 kts | 309° |
| 2026-04-30 11:26 | -26.64570 | 144.87706 | 28227 ft | 305 kts | 310° |
| 2026-04-30 11:26 | -26.63039 | 144.85950 | 28157 ft | 336 kts | 311° |
| 2026-04-30 11:27 | -26.59806 | 144.82237 | 28205 ft | 297 kts | 309° |
| 2026-04-30 11:27 | -26.58163 | 144.80338 | 28193 ft | 360 kts | 310° |
| 2026-04-30 11:27 | -26.56492 | 144.78412 | 28233 ft | 339 kts | 309° |
| 2026-04-30 11:28 | -26.53968 | 144.74501 | 28217 ft | 296 kts | 313° |
| 2026-04-30 11:28 | -26.51913 | 144.72975 | 28115 ft | 411 kts | 321° |
| 2026-04-30 11:28 | -26.50081 | 144.70918 | 28236 ft | 338 kts | 314° |
| 2026-04-30 11:29 | -26.48539 | 144.69097 | 28175 ft | 342 kts | 307° |
| 2026-04-30 11:29 | -26.47171 | 144.66985 | 27154 ft | 283 kts | 253° |
| 2026-04-30 11:29 | -26.44152 | 144.66118 | 28104 ft | 407 kts | 28° |
| 2026-04-30 11:30 | -26.39711 | 144.72665 | 30350 ft | 593 kts | 63° |
| 2026-04-30 11:30 | -26.38006 | 144.76911 | 29913 ft | 601 kts | 69° |
| 2026-04-30 11:30 | -26.36581 | 144.81230 | 29465 ft | 599 kts | 70° |
| 2026-04-30 11:31 | -26.35121 | 144.85594 | 29285 ft | 600 kts | 68° |
| 2026-04-30 11:31 | -26.32183 | 144.94321 | 29249 ft | 602 kts | 76° |
| 2026-04-30 11:32 | -26.30535 | 145.03403 | 29223 ft | 601 kts | 79° |
| 2026-04-30 11:32 | -26.28560 | 145.12483 | 29237 ft | 602 kts | 76° |
| 2026-04-30 11:33 | -26.28733 | 145.21635 | 28942 ft | 597 kts | 110° |
| 2026-04-30 11:33 | -26.30260 | 145.25922 | 28970 ft | 592 kts | 116° |
| 2026-04-30 11:33 | -26.32014 | 145.30079 | 29144 ft | 594 kts | 117° |
| 2026-04-30 11:33 | -26.33714 | 145.34210 | 29199 ft | 593 kts | 115° |
| 2026-04-30 11:34 | -26.37099 | 145.42642 | 29233 ft | 592 kts | 120° |
| 2026-04-30 11:34 | -26.41250 | 145.50524 | 29227 ft | 591 kts | 123° |
| 2026-04-30 11:35 | -26.45677 | 145.58219 | 29215 ft | 585 kts | 135° |
| 2026-04-30 11:35 | -26.48808 | 145.61050 | 29187 ft | 579 kts | 148° |
| 2026-04-30 11:35 | -26.52074 | 145.63700 | 29220 ft | 581 kts | 144° |
| 2026-04-30 11:36 | -26.54994 | 145.66840 | 29249 ft | 586 kts | 131° |
| 2026-04-30 11:36 | -26.56992 | 145.70764 | 29266 ft | 593 kts | 115° |
| 2026-04-30 11:36 | -26.60723 | 145.78993 | 29251 ft | 590 kts | 122° |
| 2026-04-30 11:37 | -26.64860 | 145.86910 | 29247 ft | 589 kts | 124° |
| 2026-04-30 11:37 | -26.69122 | 145.94691 | 29242 ft | 587 kts | 128° |
| 2026-04-30 11:38 | -26.73583 | 146.02373 | 29245 ft | 589 kts | 123° |
| 2026-04-30 11:38 | -26.77687 | 146.10244 | 29246 ft | 588 kts | 124° |
| 2026-04-30 11:39 | -26.81654 | 146.18276 | 29247 ft | 590 kts | 118° |
| 2026-04-30 11:39 | -26.85157 | 146.26589 | 29249 ft | 589 kts | 119° |
| 2026-04-30 11:40 | -26.89188 | 146.34526 | 29259 ft | 584 kts | 127° |
| 2026-04-30 11:40 | -26.93879 | 146.41923 | 29258 ft | 583 kts | 128° |
| 2026-04-30 11:41 | -26.98426 | 146.49448 | 29265 ft | 586 kts | 121° |
| 2026-04-30 11:41 | -27.02443 | 146.57424 | 29266 ft | 585 kts | 124° |
| 2026-04-30 11:42 | -27.06512 | 146.65337 | 29262 ft | 585 kts | 123° |
| 2026-04-30 11:42 | -27.10583 | 146.73212 | 29264 ft | 585 kts | 122° |
| 2026-04-30 11:43 | -27.14668 | 146.81125 | 29262 ft | 585 kts | 122° |
| 2026-04-30 11:43 | -27.18712 | 146.88987 | 29265 ft | 584 kts | 122° |
| 2026-04-30 11:44 | -27.20808 | 146.92896 | 29205 ft | 579 kts | 134° |
| 2026-04-30 11:44 | -27.23801 | 146.95913 | 28821 ft | 577 kts | 145° |
| 2026-04-30 11:44 | -27.26991 | 146.98665 | 27635 ft | 563 kts | 145° |
| 2026-04-30 11:44 | -27.29858 | 147.01283 | 26754 ft | 499 kts | 142° |
| 2026-04-30 11:45 | -27.32385 | 147.03645 | 26358 ft | 450 kts | 140° |
| 2026-04-30 11:45 | -27.34495 | 147.06216 | 26180 ft | 457 kts | 132° |
| 2026-04-30 11:45 | -27.36511 | 147.08963 | 26019 ft | 455 kts | 131° |
| 2026-04-30 11:45 | -27.38088 | 147.12055 | 26063 ft | 460 kts | 112° |
| 2026-04-30 11:46 | -27.38873 | 147.15569 | 26187 ft | 462 kts | 101° |
| 2026-04-30 11:46 | -27.39298 | 147.19108 | 26303 ft | 462 kts | 100° |
| 2026-04-30 11:46 | -27.39819 | 147.22676 | 26432 ft | 462 kts | 101° |
| 2026-04-30 11:46 | -27.40209 | 147.26265 | 26465 ft | 464 kts | 96° |
| 2026-04-30 11:47 | -27.40493 | 147.30098 | 26523 ft | 488 kts | 95° |
| 2026-04-30 11:47 | -27.40715 | 147.33944 | 26566 ft | 492 kts | 94° |
| 2026-04-30 11:47 | -27.40870 | 147.37778 | 26617 ft | 489 kts | 93° |
| 2026-04-30 11:47 | -27.41013 | 147.41559 | 26670 ft | 489 kts | 93° |
| 2026-04-30 11:48 | -27.41167 | 147.45379 | 26678 ft | 488 kts | 93° |
| 2026-04-30 11:48 | -27.41259 | 147.49207 | 26701 ft | 489 kts | 94° |
| 2026-04-30 11:48 | -27.41434 | 147.53039 | 26735 ft | 489 kts | 93° |
| 2026-04-30 11:48 | -27.41520 | 147.57153 | 26466 ft | 533 kts | 92° |
| 2026-04-30 11:49 | -27.41553 | 147.61334 | 26236 ft | 535 kts | 91° |
| 2026-04-30 11:49 | -27.41552 | 147.65518 | 26379 ft | 534 kts | 91° |
| 2026-04-30 11:49 | -27.41493 | 147.69646 | 26372 ft | 533 kts | 89° |
| 2026-04-30 11:49 | -27.41561 | 147.73834 | 26379 ft | 533 kts | 94° |
| 2026-04-30 11:50 | -27.41786 | 147.78083 | 26417 ft | 550 kts | 93° |
| 2026-04-30 11:50 | -27.41934 | 147.82359 | 26445 ft | 543 kts | 91° |
| 2026-04-30 11:50 | -27.41910 | 147.86461 | 26565 ft | 489 kts | 92° |
| 2026-04-30 11:50 | -27.41954 | 147.89993 | 26719 ft | 429 kts | 91° |
| 2026-04-30 11:51 | -27.42013 | 147.93279 | 26890 ft | 415 kts | 89° |
| 2026-04-30 11:51 | -27.42054 | 147.96776 | 26912 ft | 467 kts | 90° |
| 2026-04-30 11:51 | -27.42056 | 148.00394 | 26927 ft | 458 kts | 91° |
| 2026-04-30 11:51 | -27.42096 | 148.03860 | 27073 ft | 425 kts | 92° |
| 2026-04-30 11:52 | -27.42141 | 148.07135 | 27099 ft | 403 kts | 91° |
| 2026-04-30 11:52 | -27.42169 | 148.10506 | 27147 ft | 460 kts | 91° |
| 2026-04-30 11:52 | -27.42206 | 148.13968 | 27216 ft | 414 kts | 91° |
| 2026-04-30 11:52 | -27.42242 | 148.17276 | 27202 ft | 422 kts | 91° |
| 2026-04-30 11:53 | -27.42275 | 148.20548 | 27236 ft | 418 kts | 91° |
| 2026-04-30 11:53 | -27.42305 | 148.23825 | 27235 ft | 422 kts | 91° |
| 2026-04-30 11:53 | -27.42335 | 148.27186 | 27242 ft | 418 kts | 92° |
| 2026-04-30 11:53 | -27.42364 | 148.30450 | 27234 ft | 418 kts | 91° |
| 2026-04-30 11:54 | -27.42393 | 148.33736 | 27251 ft | 425 kts | 91° |
| 2026-04-30 11:54 | -27.42418 | 148.36988 | 27234 ft | 407 kts | 92° |
| 2026-04-30 11:54 | -27.42443 | 148.40241 | 27249 ft | 427 kts | 91° |
| 2026-04-30 11:54 | -27.42472 | 148.43512 | 27228 ft | 406 kts | 91° |
| 2026-04-30 11:55 | -27.42496 | 148.46560 | 27174 ft | 375 kts | 91° |
| 2026-04-30 11:55 | -27.42509 | 148.48518 | 27138 ft | 397 kts | 91° |
| 2026-04-30 11:55 | -27.42532 | 148.51957 | 27190 ft | 461 kts | 91° |
| 2026-04-30 11:55 | -27.42557 | 148.55756 | 27252 ft | 476 kts | 91° |
| 2026-04-30 11:56 | -27.42579 | 148.60120 | 27236 ft | 425 kts | 91° |
| 2026-04-30 11:56 | -27.42581 | 148.63428 | 27240 ft | 410 kts | 91° |
| 2026-04-30 11:56 | -27.42580 | 148.65576 | 27242 ft | 417 kts | 90° |
| 2026-04-30 11:56 | -27.42587 | 148.68850 | 27250 ft | 420 kts | 91° |
| 2026-04-30 11:57 | -27.42599 | 148.72176 | 27240 ft | 425 kts | 91° |
| 2026-04-30 11:57 | -27.42619 | 148.75508 | 27238 ft | 423 kts | 91° |
| 2026-04-30 11:57 | -27.42640 | 148.78785 | 27250 ft | 417 kts | 91° |
| 2026-04-30 11:57 | -27.42663 | 148.82022 | 27241 ft | 407 kts | 91° |
| 2026-04-30 11:58 | -27.42675 | 148.85181 | 27204 ft | 407 kts | 91° |
| 2026-04-30 11:58 | -27.42701 | 148.88443 | 27181 ft | 434 kts | 91° |
| 2026-04-30 11:58 | -27.42719 | 148.91935 | 27251 ft | 455 kts | 91° |
| 2026-04-30 11:58 | -27.42731 | 148.95401 | 27118 ft | 405 kts | 91° |
| 2026-04-30 11:59 | -27.42748 | 148.98455 | 27172 ft | 394 kts | 92° |
| 2026-04-30 11:59 | -27.42829 | 149.01799 | 27227 ft | 456 kts | 91° |
| 2026-04-30 11:59 | -27.42921 | 149.05565 | 27402 ft | 507 kts | 116° |
| 2026-04-30 11:59 | -27.45717 | 149.07129 | 28050 ft | 480 kts | 179° |
| 2026-04-30 12:00 | -27.49153 | 149.07390 | 29336 ft | 510 kts | 176° |
| 2026-04-30 12:00 | -27.52760 | 149.08048 | 30735 ft | 539 kts | 167° |
| 2026-04-30 12:00 | -27.56343 | 149.09423 | 31279 ft | 559 kts | 156° |
| 2026-04-30 12:00 | -27.59639 | 149.11633 | 30874 ft | 551 kts | 153° |
| 2026-04-30 12:01 | -27.63236 | 149.13305 | 30836 ft | 566 kts | 164° |
| 2026-04-30 12:01 | -27.67037 | 149.14501 | 30600 ft | 567 kts | 167° |
| 2026-04-30 12:01 | -27.74554 | 149.17114 | 31403 ft | 565 kts | 160° |
| 2026-04-30 12:02 | -27.78203 | 149.18776 | 32152 ft | 564 kts | 160° |
| 2026-04-30 12:02 | -27.81867 | 149.20351 | 32917 ft | 562 kts | 160° |
| 2026-04-30 12:02 | -27.85458 | 149.21963 | 33703 ft | 559 kts | 160° |
| 2026-04-30 12:02 | -27.89100 | 149.23523 | 34487 ft | 556 kts | 165° |
| 2026-04-30 12:03 | -27.92863 | 149.24631 | 34985 ft | 559 kts | 169° |
| 2026-04-30 12:03 | -28.00363 | 149.26832 | 35275 ft | 560 kts | 161° |
| 2026-04-30 12:04 | -28.07336 | 149.30830 | 35329 ft | 563 kts | 150° |
| 2026-04-30 12:04 | -28.14459 | 149.34302 | 35369 ft | 556 kts | 171° |
| 2026-04-30 12:05 | -28.21967 | 149.36295 | 35335 ft | 558 kts | 167° |
| 2026-04-30 12:05 | -28.29455 | 149.38680 | 35327 ft | 556 kts | 167° |
| 2026-04-30 12:06 | -28.36957 | 149.40476 | 35308 ft | 555 kts | 169° |
| 2026-04-30 12:06 | -28.44304 | 149.43308 | 35346 ft | 558 kts | 161° |
| 2026-04-30 12:07 | -28.51378 | 149.46540 | 35224 ft | 528 kts | 171° |
| 2026-04-30 12:07 | -28.55052 | 149.47623 | 35225 ft | 551 kts | 163° |
| 2026-04-30 12:07 | -28.58595 | 149.49192 | 35306 ft | 553 kts | 161° |
| 2026-04-30 12:08 | -28.65885 | 149.52143 | 35344 ft | 553 kts | 166° |
| 2026-04-30 12:08 | -28.73181 | 149.53870 | 36102 ft | 540 kts | 176° |
| 2026-04-30 12:08 | -28.76852 | 149.55032 | 36451 ft | 555 kts | 159° |
| 2026-04-30 12:09 | -28.80493 | 149.56506 | 36778 ft | 555 kts | 165° |
| 2026-04-30 12:09 | -28.84203 | 149.57857 | 37043 ft | 557 kts | 165° |
| 2026-04-30 12:09 | -28.87857 | 149.59167 | 37196 ft | 559 kts | 165° |
| 2026-04-30 12:10 | -28.95240 | 149.62159 | 36866 ft | 561 kts | 167° |
| 2026-04-30 12:10 | -28.98928 | 149.63446 | 36480 ft | 558 kts | 164° |
| 2026-04-30 12:10 | -29.02460 | 149.65273 | 36356 ft | 559 kts | 146° |
| 2026-04-30 12:10 | -29.05762 | 149.67518 | 36132 ft | 559 kts | 165° |
| 2026-04-30 12:11 | -29.09496 | 149.68809 | 35903 ft | 558 kts | 162° |
| 2026-04-30 12:11 | -29.16806 | 149.71531 | 36017 ft | 552 kts | 172° |
| 2026-04-30 12:12 | -29.24339 | 149.73432 | 35170 ft | 552 kts | 169° |
| 2026-04-30 12:12 | -29.28051 | 149.74485 | 35309 ft | 548 kts | 168° |
| 2026-04-30 12:12 | -29.31679 | 149.75725 | 35369 ft | 554 kts | 165° |
| 2026-04-30 12:13 | -29.39026 | 149.78428 | 35370 ft | 552 kts | 165° |
| 2026-04-30 12:13 | -29.46366 | 149.81053 | 35313 ft | 551 kts | 167° |
| 2026-04-30 12:14 | -29.53769 | 149.83380 | 35340 ft | 551 kts | 165° |
| 2026-04-30 12:14 | -29.61048 | 149.86096 | 35350 ft | 551 kts | 166° |
| 2026-04-30 12:15 | -29.68249 | 149.89017 | 35350 ft | 553 kts | 157° |
| 2026-04-30 12:15 | -29.75291 | 149.92616 | 35360 ft | 549 kts | 165° |
| 2026-04-30 12:16 | -29.82683 | 149.94842 | 35370 ft | 551 kts | 164° |
| 2026-04-30 12:16 | -29.89946 | 149.97525 | 35351 ft | 549 kts | 166° |
| 2026-04-30 12:17 | -30.00934 | 150.01359 | 35356 ft | 549 kts | 165° |
| 2026-04-30 12:17 | -30.08272 | 150.03707 | 35372 ft | 550 kts | 165° |
| 2026-04-30 12:18 | -30.15564 | 150.06469 | 35365 ft | 559 kts | 165° |
| 2026-04-30 12:18 | -30.19363 | 150.07808 | 35321 ft | 573 kts | 166° |
| 2026-04-30 12:18 | -30.23196 | 150.09153 | 35344 ft | 576 kts | 165° |
| 2026-04-30 12:19 | -30.30885 | 150.12002 | 35033 ft | 611 kts | 163° |
| 2026-04-30 12:19 | -30.35072 | 150.13653 | 34966 ft | 658 kts | 163° |
| 2026-04-30 12:19 | -30.39542 | 150.15413 | 35518 ft | 695 kts | 163° |
| 2026-04-30 12:20 | -30.44305 | 150.17233 | 35544 ft | 745 kts | 164° |
| 2026-04-30 12:20 | -30.49403 | 150.19103 | 35442 ft | 808 kts | 164° |
| 2026-04-30 12:20 | -30.54853 | 150.21054 | 35389 ft | 824 kts | 164° |
| 2026-04-30 12:20 | -30.60360 | 150.23066 | 35372 ft | 830 kts | 163° |
| 2026-04-30 12:21 | -30.71370 | 150.26954 | 35368 ft | 833 kts | 165° |
| 2026-04-30 12:21 | -30.76977 | 150.28814 | 35372 ft | 858 kts | 167° |
| 2026-04-30 12:21 | -30.83083 | 150.30179 | 35372 ft | 928 kts | 174° |
| 2026-04-30 12:22 | -30.95490 | 150.32462 | 35370 ft | 799 kts | 168° |
| 2026-04-30 12:22 | -31.00551 | 150.34055 | 35349 ft | 707 kts | 165° |
| 2026-04-30 12:22 | -31.04974 | 150.35635 | 35344 ft | 627 kts | 164° |
| 2026-04-30 12:23 | -31.08827 | 150.37106 | 35233 ft | 544 kts | 173° |
| 2026-04-30 12:23 | -31.12371 | 150.36866 | 34375 ft | 493 kts | 200° |
| 2026-04-30 12:23 | -31.15419 | 150.35241 | 32883 ft | 473 kts | 208° |
| 2026-04-30 12:23 | -31.18205 | 150.33539 | 32682 ft | 428 kts | 203° |
| 2026-04-30 12:24 | -31.20914 | 150.32609 | 32139 ft | 396 kts | 194° |
| 2026-04-30 12:24 | -31.23536 | 150.32287 | 31299 ft | 367 kts | 172° |
| 2026-04-30 12:24 | -31.25843 | 150.33300 | 30325 ft | 346 kts | 152° |
| 2026-04-30 12:24 | -31.27749 | 150.34959 | 29105 ft | 336 kts | 141° |
| 2026-04-30 12:25 | -31.29844 | 150.36716 | 27884 ft | 441 kts | 150° |
| 2026-04-30 12:25 | -31.33050 | 150.38754 | 26534 ft | 568 kts | 152° |
| 2026-04-30 12:25 | -31.36456 | 150.40983 | 25244 ft | 568 kts | 150° |
| 2026-04-30 12:25 | -31.39902 | 150.43337 | 24013 ft | 575 kts | 149° |
| 2026-04-30 12:26 | -31.43363 | 150.45732 | 22696 ft | 579 kts | 152° |
| 2026-04-30 12:26 | -31.47049 | 150.47686 | 21939 ft | 583 kts | 156° |
| 2026-04-30 12:26 | -31.50737 | 150.49550 | 21584 ft | 584 kts | 155° |
| 2026-04-30 12:26 | -31.54401 | 150.51629 | 21473 ft | 586 kts | 154° |
| 2026-04-30 12:27 | -31.58086 | 150.53680 | 21419 ft | 586 kts | 154° |
| 2026-04-30 12:27 | -31.61761 | 150.55716 | 21421 ft | 586 kts | 154° |
| 2026-04-30 12:27 | -31.65473 | 150.57767 | 21407 ft | 586 kts | 155° |
| 2026-04-30 12:27 | -31.69163 | 150.59792 | 21418 ft | 586 kts | 154° |
| 2026-04-30 12:28 | -31.72803 | 150.61840 | 21416 ft | 585 kts | 154° |
| 2026-04-30 12:28 | -31.76454 | 150.63955 | 21416 ft | 585 kts | 153° |
| 2026-04-30 12:28 | -31.80082 | 150.66136 | 21421 ft | 585 kts | 153° |
| 2026-04-30 12:28 | -31.83736 | 150.68290 | 21426 ft | 585 kts | 153° |
| 2026-04-30 12:29 | -31.87363 | 150.70477 | 21427 ft | 585 kts | 152° |
| 2026-04-30 12:29 | -31.90989 | 150.72688 | 21393 ft | 586 kts | 152° |
| 2026-04-30 12:29 | -31.94438 | 150.75156 | 20948 ft | 588 kts | 139° |
| 2026-04-30 12:29 | -31.97316 | 150.78591 | 20222 ft | 588 kts | 133° |
| 2026-04-30 12:30 | -32.00173 | 150.82079 | 19515 ft | 590 kts | 134° |
| 2026-04-30 12:30 | -32.03072 | 150.85521 | 18829 ft | 593 kts | 134° |
| 2026-04-30 12:30 | -32.05909 | 150.88977 | 18076 ft | 595 kts | 133° |
| 2026-04-30 12:30 | -32.08763 | 150.92546 | 17289 ft | 597 kts | 132° |
| 2026-04-30 12:31 | -32.11551 | 150.96192 | 16539 ft | 599 kts | 131° |
| 2026-04-30 12:31 | -32.14350 | 150.99859 | 15806 ft | 601 kts | 131° |
| 2026-04-30 12:31 | -32.17178 | 151.03507 | 15085 ft | 603 kts | 132° |
| 2026-04-30 12:31 | -32.20033 | 151.07169 | 14390 ft | 606 kts | 131° |
| 2026-04-30 12:32 | -32.22882 | 151.10862 | 13774 ft | 606 kts | 131° |
| 2026-04-30 12:32 | -32.25721 | 151.14495 | 13545 ft | 607 kts | 132° |
| 2026-04-30 12:32 | -32.28610 | 151.18150 | 13460 ft | 608 kts | 132° |
| 2026-04-30 12:32 | -32.31483 | 151.21833 | 13439 ft | 608 kts | 131° |
| 2026-04-30 12:33 | -32.34299 | 151.25514 | 13430 ft | 608 kts | 131° |
| 2026-04-30 12:33 | -32.37167 | 151.29216 | 13430 ft | 608 kts | 132° |
| 2026-04-30 12:33 | -32.40048 | 151.32861 | 13427 ft | 608 kts | 132° |
| 2026-04-30 12:33 | -32.42949 | 151.36525 | 13434 ft | 608 kts | 132° |
| 2026-04-30 12:34 | -32.45835 | 151.40182 | 13436 ft | 608 kts | 132° |
| 2026-04-30 12:34 | -32.48744 | 151.43825 | 13420 ft | 607 kts | 132° |
| 2026-04-30 12:34 | -32.51362 | 151.47250 | 12518 ft | 518 kts | 131° |
| 2026-04-30 12:34 | -32.53723 | 151.50217 | 11098 ft | 466 kts | 133° |
| 2026-04-30 12:35 | -32.55866 | 151.52801 | 10160 ft | 426 kts | 134° |
| 2026-04-30 12:35 | -32.57902 | 151.55292 | 9180 ft | 421 kts | 133° |
| 2026-04-30 12:35 | -32.59946 | 151.57774 | 8218 ft | 418 kts | 133° |
| 2026-04-30 12:35 | -32.61988 | 151.60236 | 7299 ft | 417 kts | 133° |
| 2026-04-30 12:36 | -32.64031 | 151.62680 | 6353 ft | 418 kts | 134° |
| 2026-04-30 12:36 | -32.66022 | 151.65209 | 5378 ft | 419 kts | 131° |
| 2026-04-30 12:36 | -32.67960 | 151.67765 | 4246 ft | 420 kts | 129° |
| 2026-04-30 12:36 | -32.69844 | 151.70445 | 3199 ft | 423 kts | 129° |
| 2026-04-30 12:37 | -32.71750 | 151.73037 | 2554 ft | 395 kts | 129° |
| 2026-04-30 12:37 | -32.73444 | 151.75380 | 2416 ft | 358 kts | 129° |
| 2026-04-30 12:37 | -32.75095 | 151.77616 | 2040 ft | 357 kts | 130° |
| 2026-04-30 12:37 | -32.76698 | 151.79806 | 1476 ft | 353 kts | 129° |
| 2026-04-30 12:38 | -32.78342 | 151.82100 | 1419 ft | 375 kts | 129° |
| 2026-04-30 12:38 | -32.80127 | 151.84264 | 1450 ft | 337 kts | 167° |
| 2026-04-30 12:38 | -32.80840 | 151.83230 | 1285 ft | 166 kts | 323° |
| 2026-04-30 12:38 | -32.80163 | 151.82255 | 1172 ft | 131 kts | 310° |
| 2026-04-30 12:39 | -32.79637 | 151.81155 | 1234 ft | 151 kts | 300° |
| 2026-04-30 12:39 | -32.79117 | 151.80256 | 948 ft | 137 kts | 338° |
| 2026-04-30 12:39 | -32.78255 | 151.80626 | 686 ft | 134 kts | 70° |
| 2026-04-30 12:39 | -32.78326 | 151.81678 | 201 ft | 139 kts | 123° |
| 2026-04-30 12:40 | -32.78903 | 151.82524 | 29 ft | 119 kts | 130° |
| 2026-04-30 12:40 | -32.79208 | 151.82951 | 31 ft | 89 kts | 130° |
| 2026-04-30 12:40 | -32.79667 | 151.83594 | 27 ft | 67 kts | 130° |
| 2026-04-30 12:40 | -32.79834 | 151.83893 | 32 ft | 27 kts | 68° |
| 2026-04-30 12:41 | -32.79735 | 151.83972 | 31 ft | 15 kts | 323° |
| 2026-04-30 12:41 | -32.79663 | 151.83874 | 31 ft | 16 kts | 310° |
| 2026-04-30 12:41 | -32.79588 | 151.83769 | 29 ft | 18 kts | 310° |
| 2026-04-30 12:41 | -32.79500 | 151.83647 | 27 ft | 20 kts | 310° |
| 2026-04-30 12:42 | -32.79441 | 151.83565 | 28 ft | 20 kts | 310° |
| 2026-04-30 12:42 | -32.79358 | 151.83471 | 28 ft | 11 kts | 15° |
| 2026-04-30 12:42 | -32.79271 | 151.83552 | 31 ft | 21 kts | 40° |
| 2026-04-30 12:42 | -32.79098 | 151.83726 | 31 ft | 16 kts | 38° |
| 2026-04-30 12:43 | -32.79010 | 151.83704 | 31 ft | 17 kts | 25° |
| 2026-04-30 12:43 | -32.78943 | 151.83761 | 31 ft | 18 kts | 50° |
| 2026-04-30 12:43 | -32.78911 | 151.83862 | 31 ft | 8 kts | 144° |
| 2026-04-30 12:43 | -32.78982 | 151.83924 | 31 ft | 12 kts | 123° |
| 2026-04-30 12:44 | -32.78974 | 151.83956 | 31 ft | 2 kts | 56° |
| 2026-04-30 12:44 | -32.78970 | 151.83963 | 31 ft | 0 kts | 54° |